KJVW

John Bell Williams Airport

Raymond, Mississippi, USA
METAR KJVW 202015Z AUTO 24008KT 5SM HZ 34/24 A2994 RMK AO2 LTG DSNT E-S
Observed Flight Rules
Aug-20 @ 20:15 UTC (14 minutes ago)
Wind Visibility Conditions
240° at 8 knots 5 miles
  • Haze
Temperatures Readings
Current 34°C / 93°F
Dewpoint 24°C / 75°F
Humidity 56%
Altimeter 29.94" Hg
Pressure 1014 hPa
Elevation 76
METAR KJVW 202015Z AUTO 24008KT 5SM HZ 34/24 A2994 RMK AO2 LTG DSNT E-S
Observed Flight Rules
Aug-20 @ 20:15 UTC
(14 minutes ago)
Wind Visibility
240° at 8 knots 5 miles
Conditions
  • Haze
Temperature Dewpoint
34°C / 93°F 24°C / 75°F
Humidity Altimeter Pressure
56% 29.94" Hg 1014 hPa